Time;durP1;ratioP1;P1;durP2;ratioP2;P2;SDS_P1;SDS_P2;PMS_P1;PMS_P2;Temp;Humidity;BMP_temperature;BMP_pressure;BME280_temperature;BME280_humidity;BME280_pressure;Samples;Min_cycle;Max_cycle;Signal;HPM_P1;HPM_P2
2021/09/25 00:01:23;;;;;;;22.65;14.15;;;14.00;99.90;;;;;;5073834;28;20074;-71
2021/09/25 00:03:49;;;;;;;25.67;15.32;;;14.00;99.90;;;;;;5073527;28;20479;-70
2021/09/25 00:06:15;;;;;;;25.92;14.60;;;14.10;99.90;;;;;;5073498;28;20377;-70
2021/09/25 00:08:40;;;;;;;26.75;13.57;;;14.00;99.90;;;;;;5073099;28;20071;-71
2021/09/25 00:11:06;;;;;;;29.02;15.50;;;14.00;99.90;;;;;;5055365;28;20036;-69
2021/09/25 00:13:32;;;;;;;22.25;13.77;;;14.00;99.90;;;;;;5055104;28;20028;-68
2021/09/25 00:15:58;;;;;;;20.77;13.77;;;13.90;99.90;;;;;;5073355;28;20031;-71
2021/09/25 00:18:24;;;;;;;20.38;12.02;;;14.00;99.90;;;;;;5073255;28;20111;-69
2021/09/25 00:20:50;;;;;;;19.10;12.18;;;13.90;99.90;;;;;;5055333;28;20020;-71
2021/09/25 00:23:16;;;;;;;18.48;12.73;;;13.80;99.90;;;;;;5072923;28;20032;-69
2021/09/25 00:25:41;;;;;;;20.38;12.43;;;13.80;99.90;;;;;;5055250;28;20043;-69
2021/09/25 00:28:07;;;;;;;17.45;11.60;;;13.80;99.90;;;;;;5073107;28;20033;-69
2021/09/25 00:30:33;;;;;;;16.50;11.43;;;13.80;99.90;;;;;;5073148;28;20033;-67
2021/09/25 00:32:59;;;;;;;21.90;11.20;;;13.80;99.90;;;;;;5073135;28;20137;-68
2021/09/25 00:35:25;;;;;;;18.80;12.20;;;13.80;99.90;;;;;;5054844;28;20476;-68
2021/09/25 00:37:51;;;;;;;21.02;11.98;;;13.80;99.90;;;;;;5072541;28;20470;-69
2021/09/25 00:40:17;;;;;;;20.65;13.40;;;13.70;99.90;;;;;;5072709;28;20036;-69
2021/09/25 00:42:44;;;;;;;23.95;12.27;;;13.70;99.90;;;;;;5073057;28;20409;-69
2021/09/25 00:45:12;;;;;;;21.05;12.63;;;13.70;99.90;;;;;;5073079;28;20527;-69
2021/09/25 00:47:38;;;;;;;24.45;12.65;;;13.80;99.90;;;;;;5072620;28;20024;-69
2021/09/25 00:50:06;;;;;;;25.00;12.65;;;13.70;99.90;;;;;;5054934;28;20031;-70
2021/09/25 00:52:32;;;;;;;26.15;13.77;;;13.70;99.90;;;;;;5072909;28;20021;-69
2021/09/25 00:54:58;;;;;;;21.15;12.43;;;13.70;99.90;;;;;;5055000;28;20453;-70
2021/09/25 00:57:25;;;;;;;19.88;12.30;;;13.70;99.90;;;;;;5054917;28;20024;-68
2021/09/25 00:59:51;;;;;;;20.30;11.85;;;13.80;99.90;;;;;;5072837;28;20034;-68
2021/09/25 01:02:18;;;;;;;20.23;12.48;;;13.70;99.90;;;;;;5072522;28;20025;-69
2021/09/25 01:04:48;;;;;;;21.50;11.73;;;13.70;99.90;;;;;;5072875;28;20029;-67
2021/09/25 01:07:14;;;;;;;23.15;12.23;;;13.70;99.90;;;;;;5054478;28;20028;-67
2021/09/25 01:09:40;;;;;;;17.45;11.48;;;13.60;99.90;;;;;;5054386;28;20029;-70
2021/09/25 01:12:07;;;;;;;18.92;11.65;;;13.60;99.90;;;;;;5072818;28;20040;-69
2021/09/25 01:14:34;;;;;;;16.75;11.30;;;13.60;99.90;;;;;;5072702;28;20068;-68
2021/09/25 01:17:05;;;;;;;15.90;11.18;;;13.60;99.90;;;;;;5072732;28;20040;-68
2021/09/25 01:19:31;;;;;;;20.13;12.35;;;13.50;99.90;;;;;;5054802;28;20554;-70
2021/09/25 01:21:56;;;;;;;18.33;11.32;;;13.50;99.90;;;;;;5072564;28;20135;-69
2021/09/25 01:24:22;;;;;;;15.15;11.07;;;13.40;99.90;;;;;;5072620;28;20056;-70
2021/09/25 01:26:48;;;;;;;16.95;12.10;;;13.50;99.90;;;;;;5054529;28;20029;-67
2021/09/25 01:29:14;;;;;;;17.45;11.48;;;13.50;99.90;;;;;;5054488;28;20028;-68
2021/09/25 01:31:40;;;;;;;26.88;12.90;;;13.50;99.90;;;;;;5072552;28;20039;-68
2021/09/25 01:34:05;;;;;;;21.10;12.02;;;13.60;99.90;;;;;;5054618;28;20044;-71
2021/09/25 01:36:32;;;;;;;16.90;11.55;;;13.60;99.90;;;;;;5072606;28;20032;-70
2021/09/25 01:38:57;;;;;;;23.52;12.40;;;13.50;99.90;;;;;;5072610;28;20074;-68
2021/09/25 01:41:23;;;;;;;20.92;11.38;;;13.50;99.90;;;;;;5072452;28;20033;-68
2021/09/25 01:43:49;;;;;;;17.13;11.85;;;13.40;99.90;;;;;;5072473;28;20103;-69
2021/09/25 01:46:19;;;;;;;18.70;11.13;;;13.40;99.90;;;;;;5072477;28;20031;-70
2021/09/25 01:48:45;;;;;;;14.88;10.43;;;13.40;99.90;;;;;;5054266;28;20035;-69
2021/09/25 01:51:12;;;;;;;18.42;11.68;;;13.30;99.90;;;;;;5075374;28;20081;-70
2021/09/25 01:53:39;;;;;;;17.25;11.63;;;13.30;99.90;;;;;;5076057;28;20051;-71
2021/09/25 01:56:08;;;;;;;18.48;11.57;;;13.30;99.90;;;;;;5076043;28;20075;-70
2021/09/25 01:58:34;;;;;;;18.70;11.35;;;13.20;99.90;;;;;;5057938;28;20033;-69
2021/09/25 02:01:00;;;;;;;16.33;11.35;;;13.20;99.90;;;;;;5075877;28;20078;-69
2021/09/25 02:03:26;;;;;;;15.30;11.30;;;13.20;99.90;;;;;;5075879;28;20032;-70
2021/09/25 02:05:52;;;;;;;16.08;11.43;;;13.20;99.90;;;;;;5075489;28;20028;-71
2021/09/25 02:08:18;;;;;;;19.25;12.38;;;13.30;99.90;;;;;;5057674;28;20035;-71
2021/09/25 02:10:44;;;;;;;16.33;11.32;;;13.20;99.90;;;;;;5075456;28;20028;-68
2021/09/25 02:13:09;;;;;;;19.60;11.90;;;13.30;99.90;;;;;;5057687;28;20031;-68
2021/09/25 02:15:35;;;;;;;21.15;11.48;;;13.30;99.90;;;;;;5075220;28;20170;-68
2021/09/25 02:18:02;;;;;;;21.77;11.45;;;13.30;99.90;;;;;;5057571;28;20067;-68
2021/09/25 02:20:28;;;;;;;22.13;11.55;;;13.20;99.90;;;;;;5075597;28;20074;-71
2021/09/25 02:22:54;;;;;;;19.30;11.32;;;13.30;99.90;;;;;;5075611;28;20409;-68
2021/09/25 02:25:20;;;;;;;16.60;10.80;;;13.20;99.90;;;;;;5075514;28;20032;-70
2021/09/25 02:27:49;;;;;;;20.20;11.48;;;13.20;99.90;;;;;;5075343;28;20080;-68
2021/09/25 02:30:16;;;;;;;16.92;11.50;;;13.20;99.90;;;;;;5075338;28;20032;-69
2021/09/25 02:32:44;;;;;;;15.32;11.82;;;13.20;99.90;;;;;;5075298;28;20025;-69
2021/09/25 02:35:12;;;;;;;18.38;11.25;;;13.20;99.90;;;;;;5075327;28;20032;-70
2021/09/25 02:37:38;;;;;;;15.48;11.25;;;13.20;99.90;;;;;;5074961;28;20034;-70
2021/09/25 02:40:05;;;;;;;18.23;11.25;;;13.20;99.90;;;;;;5075269;28;20443;-69
2021/09/25 02:42:31;;;;;;;17.50;11.75;;;13.20;99.90;;;;;;5075144;28;20035;-68
2021/09/25 02:44:57;;;;;;;17.80;11.65;;;13.10;99.90;;;;;;5075125;28;20020;-66
2021/09/25 02:47:22;;;;;;;20.60;11.55;;;13.10;99.90;;;;;;5075058;28;20036;-69
2021/09/25 02:49:48;;;;;;;19.70;13.32;;;13.00;99.90;;;;;;5074990;28;20108;-69
2021/09/25 02:52:14;;;;;;;26.75;14.73;;;12.90;99.90;;;;;;5074960;28;20052;-69
2021/09/25 02:54:41;;;;;;;20.20;13.82;;;12.80;99.90;;;;;;5056934;28;20067;-70
2021/09/25 02:57:07;;;;;;;19.83;14.15;;;12.60;99.90;;;;;;5075189;28;20389;-69
2021/09/25 02:59:32;;;;;;;22.63;14.40;;;12.60;99.90;;;;;;5074534;28;20033;-70
2021/09/25 03:01:58;;;;;;;23.33;13.48;;;12.70;99.90;;;;;;5073767;28;20025;-69
2021/09/25 03:04:24;;;;;;;24.60;13.93;;;12.70;99.90;;;;;;5074730;28;20016;-71
2021/09/25 03:06:50;;;;;;;20.63;13.85;;;12.80;99.90;;;;;;5074699;28;20044;-70
2021/09/25 03:09:16;;;;;;;21.58;13.68;;;12.80;99.90;;;;;;5074519;28;20037;-68
2021/09/25 03:11:42;;;;;;;26.70;14.30;;;12.90;99.90;;;;;;5056556;28;20559;-68
2021/09/25 03:14:07;;;;;;;21.33;14.05;;;12.80;99.90;;;;;;5074193;28;20056;-71
2021/09/25 03:16:33;;;;;;;23.13;14.27;;;12.80;99.90;;;;;;5074507;28;20055;-69
2021/09/25 03:18:59;;;;;;;22.05;12.93;;;12.70;99.90;;;;;;5074398;28;20115;-68
2021/09/25 03:21:25;;;;;;;46.92;28.58;;;12.70;99.90;;;;;;5074071;28;20100;-68
2021/09/25 03:23:51;;;;;;;56.83;33.83;;;12.70;99.90;;;;;;5056270;28;20036;-68
2021/09/25 03:26:16;;;;;;;60.85;34.55;;;12.60;99.90;;;;;;5073981;28;20117;-69
2021/09/25 03:28:43;;;;;;;53.20;31.63;;;12.60;99.90;;;;;;5056142;28;20039;-67
2021/09/25 03:31:09;;;;;;;41.47;25.17;;;12.50;99.90;;;;;;5056144;28;20033;-67
2021/09/25 03:33:35;;;;;;;34.53;20.00;;;12.50;99.90;;;;;;5074108;28;20028;-68
2021/09/25 03:36:01;;;;;;;30.33;17.95;;;12.50;99.90;;;;;;5056111;28;20028;-68
2021/09/25 03:38:27;;;;;;;24.58;15.05;;;12.50;99.90;;;;;;5074086;28;20035;-66
2021/09/25 03:40:54;;;;;;;26.23;14.65;;;12.40;99.90;;;;;;5074014;28;20028;-68
2021/09/25 03:43:20;;;;;;;22.13;15.05;;;12.50;99.90;;;;;;5073648;28;20034;-68
2021/09/25 03:45:46;;;;;;;25.63;13.13;;;12.50;99.90;;;;;;5055978;28;20108;-68
2021/09/25 03:48:12;;;;;;;26.38;15.20;;;12.60;99.90;;;;;;5055763;28;20123;-66
2021/09/25 03:50:38;;;;;;;25.83;14.48;;;12.60;99.90;;;;;;5073787;28;20075;-70
2021/09/25 03:53:04;;;;;;;23.73;14.20;;;12.60;99.90;;;;;;5073806;28;20453;-68
2021/09/25 03:55:30;;;;;;;24.50;15.43;;;12.60;99.90;;;;;;5073674;28;20149;-69
2021/09/25 03:57:56;;;;;;;22.80;15.18;;;12.50;99.90;;;;;;5055780;28;20040;-70
2021/09/25 04:00:25;;;;;;;28.88;15.68;;;12.50;99.90;;;;;;5073620;28;20028;-68
2021/09/25 04:02:52;;;;;;;24.58;15.65;;;12.50;99.90;;;;;;5055638;28;20028;-70
2021/09/25 04:05:19;;;;;;;25.45;15.48;;;12.50;99.90;;;;;;5073499;28;20025;-68
2021/09/25 04:07:45;;;;;;;20.95;15.38;;;12.50;99.90;;;;;;5055638;28;20052;-68
2021/09/25 04:10:12;;;;;;;23.10;14.88;;;12.60;99.90;;;;;;5073554;28;20047;-70
2021/09/25 04:12:39;;;;;;;22.77;14.40;;;12.50;99.90;;;;;;5072883;28;20516;-70
2021/09/25 04:15:06;;;;;;;25.30;15.57;;;12.50;99.90;;;;;;5055206;28;20527;-68
2021/09/25 04:17:32;;;;;;;22.75;14.20;;;12.50;99.90;;;;;;5055291;28;20032;-69
2021/09/25 04:19:58;;;;;;;28.30;15.27;;;12.50;99.90;;;;;;5055331;28;20028;-69
2021/09/25 04:22:24;;;;;;;22.27;14.07;;;12.50;99.90;;;;;;5055231;28;20029;-69
2021/09/25 04:24:50;;;;;;;27.17;14.70;;;12.50;99.90;;;;;;5073541;28;20369;-70
2021/09/25 04:27:16;;;;;;;29.30;14.60;;;12.50;99.90;;;;;;5073306;28;20031;-68
2021/09/25 04:29:42;;;;;;;27.20;14.63;;;12.50;99.90;;;;;;5055058;28;20448;-69
2021/09/25 04:32:08;;;;;;;32.72;15.45;;;12.50;99.90;;;;;;5073157;28;20039;-67
2021/09/25 04:34:33;;;;;;;31.20;15.10;;;12.40;99.90;;;;;;5073319;28;20037;-70
2021/09/25 04:37:00;;;;;;;29.02;14.48;;;12.30;99.90;;;;;;5055088;28;20048;-70
2021/09/25 04:39:26;;;;;;;27.70;15.10;;;12.30;99.90;;;;;;5053909;28;20388;-71
2021/09/25 04:41:52;;;;;;;26.10;15.88;;;12.30;99.90;;;;;;5073033;28;20025;-68
2021/09/25 04:44:18;;;;;;;26.75;15.40;;;12.30;99.90;;;;;;5054639;28;20021;-69
2021/09/25 04:46:46;;;;;;;27.98;15.27;;;12.30;99.90;;;;;;5054916;28;20033;-70
2021/09/25 04:49:12;;;;;;;30.73;17.08;;;12.30;99.90;;;;;;5072851;28;20033;-68
2021/09/25 04:51:38;;;;;;;28.05;16.30;;;12.30;99.90;;;;;;5054870;28;20078;-69
2021/09/25 04:54:05;;;;;;;24.65;15.88;;;12.40;99.90;;;;;;5072669;28;20489;-66
2021/09/25 04:56:34;;;;;;;30.23;15.45;;;12.40;99.90;;;;;;5072982;28;20031;-67
2021/09/25 04:59:00;;;;;;;32.42;15.80;;;12.50;99.90;;;;;;5054827;28;20028;-68
2021/09/25 05:01:27;;;;;;;23.45;15.80;;;12.50;99.90;;;;;;5072911;28;20033;-68
2021/09/25 05:03:52;;;;;;;31.33;16.65;;;12.40;99.90;;;;;;5072776;28;20031;-70
2021/09/25 05:06:18;;;;;;;33.08;15.50;;;12.40;99.90;;;;;;5054846;28;20060;-70
2021/09/25 05:08:44;;;;;;;26.88;14.23;;;12.50;99.90;;;;;;5054655;28;20381;-69
2021/09/25 05:11:10;;;;;;;24.90;13.68;;;12.50;99.90;;;;;;5072487;28;20024;-69
2021/09/25 05:13:36;;;;;;;23.58;14.02;;;12.50;99.90;;;;;;5072622;28;20114;-69
2021/09/25 05:16:02;;;;;;;22.60;14.23;;;12.50;99.90;;;;;;5072328;28;20065;-67
2021/09/25 05:18:28;;;;;;;23.75;14.45;;;12.50;99.90;;;;;;5054731;28;20111;-69
2021/09/25 05:20:54;;;;;;;24.52;13.93;;;12.60;99.90;;;;;;5072405;28;20166;-68
2021/09/25 05:23:20;;;;;;;31.17;15.35;;;12.60;99.90;;;;;;5054605;28;20032;-68
2021/09/25 05:25:46;;;;;;;39.33;20.85;;;12.60;99.90;;;;;;5057043;28;20464;-68
2021/09/25 05:28:12;;;;;;;36.08;20.98;;;12.50;99.90;;;;;;5076558;28;20496;-69
2021/09/25 05:30:39;;;;;;;40.28;21.10;;;12.60;99.90;;;;;;5076476;28;20028;-68
2021/09/25 05:33:08;;;;;;;37.67;20.83;;;12.70;99.90;;;;;;5076471;28;20037;-71
2021/09/25 05:35:34;;;;;;;44.15;22.45;;;12.70;99.90;;;;;;5058392;28;20035;-69
2021/09/25 05:38:00;;;;;;;46.35;23.60;;;12.70;99.90;;;;;;5076375;28;20021;-68
2021/09/25 05:40:26;;;;;;;40.70;23.67;;;12.80;99.90;;;;;;5076335;28;20112;-67
2021/09/25 05:42:52;;;;;;;34.60;22.92;;;12.90;99.90;;;;;;5076282;28;20020;-71
2021/09/25 05:45:18;;;;;;;48.85;23.13;;;12.90;99.90;;;;;;5076185;28;20024;-69
2021/09/25 05:47:45;;;;;;;38.22;19.20;;;13.00;99.90;;;;;;5058251;28;20119;-69
2021/09/25 05:50:12;;;;;;;36.50;16.67;;;13.00;99.90;;;;;;5075993;28;20043;-68
2021/09/25 05:52:38;;;;;;;29.25;16.88;;;13.10;99.90;;;;;;5075937;28;20095;-70
2021/09/25 05:55:05;;;;;;;25.10;15.93;;;13.20;99.90;;;;;;5075761;28;20108;-71
2021/09/25 05:57:31;;;;;;;25.58;15.63;;;13.20;99.90;;;;;;5058033;28;20024;-68
2021/09/25 05:59:57;;;;;;;24.90;14.70;;;13.30;99.90;;;;;;5073639;28;20032;-69
2021/09/25 06:02:23;;;;;;;21.60;12.88;;;13.30;99.90;;;;;;5050697;28;20507;-71
2021/09/25 06:04:49;;;;;;;20.15;13.23;;;13.40;99.90;;;;;;5049613;28;20020;-69
2021/09/25 06:07:15;;;;;;;21.77;12.13;;;13.50;99.90;;;;;;5075987;28;20381;-69
2021/09/25 06:09:42;;;;;;;22.17;13.38;;;13.60;99.90;;;;;;5057576;28;20089;-70
2021/09/25 06:12:08;;;;;;;25.88;12.60;;;13.70;99.90;;;;;;5075313;28;20478;-70
2021/09/25 06:14:35;;;;;;;21.25;12.02;;;13.80;99.90;;;;;;5057193;28;20048;-71
2021/09/25 06:17:01;;;;;;;23.83;12.07;;;13.90;99.90;;;;;;5075547;28;20028;-72
2021/09/25 06:19:26;;;;;;;22.13;12.23;;;14.00;99.90;;;;;;5075178;28;20048;-70
2021/09/25 06:21:53;;;;;;;25.35;12.88;;;14.00;99.90;;;;;;5075340;28;20113;-71
2021/09/25 06:24:19;;;;;;;24.23;11.95;;;14.10;99.90;;;;;;5075428;28;20025;-73
2021/09/25 06:26:44;;;;;;;23.40;12.40;;;14.20;99.90;;;;;;5075592;28;20025;-71
2021/09/25 06:29:11;;;;;;;22.92;11.88;;;14.20;99.90;;;;;;5074803;28;20599;-71
2021/09/25 06:31:40;;;;;;;21.55;12.20;;;14.30;99.90;;;;;;5074880;28;20037;-70
2021/09/25 06:34:06;;;;;;;27.15;15.00;;;14.40;99.90;;;;;;5075223;28;20029;-70
2021/09/25 06:36:34;;;;;;;30.65;13.90;;;14.50;99.90;;;;;;5056974;28;20020;-71
2021/09/25 06:39:01;;;;;;;22.52;12.68;;;14.60;99.90;;;;;;5057131;28;20131;-71
2021/09/25 06:41:27;;;;;;;28.75;14.93;;;14.70;99.90;;;;;;5057149;28;20032;-71
2021/09/25 06:43:53;;;;;;;29.17;13.07;;;14.80;99.90;;;;;;5075105;28;20035;-72
2021/09/25 06:46:19;;;;;;;26.05;12.05;;;14.90;99.90;;;;;;5057084;28;20029;-71
2021/09/25 06:48:47;;;;;;;21.75;12.40;;;15.10;99.90;;;;;;5074963;28;20469;-70
2021/09/25 06:51:13;;;;;;;23.55;10.38;;;15.20;99.90;;;;;;5075017;28;20492;-69
2021/09/25 06:53:38;;;;;;;20.23;10.52;;;15.40;99.90;;;;;;5074906;28;20024;-70
2021/09/25 06:56:05;;;;;;;16.38;9.68;;;15.50;99.90;;;;;;5056864;28;20032;-70
2021/09/25 06:58:31;;;;;;;20.40;10.05;;;15.60;99.90;;;;;;5056785;28;20454;-73
2021/09/25 07:00:57;;;;;;;13.77;9.27;;;15.90;99.90;;;;;;5074758;28;20078;-71
2021/09/25 07:03:22;;;;;;;16.08;9.13;;;16.00;99.90;;;;;;5074717;28;20449;-72
2021/09/25 07:05:48;;;;;;;20.45;11.13;;;16.10;99.90;;;;;;5056705;28;20020;-70
2021/09/25 07:08:14;;;;;;;18.55;9.50;;;16.30;99.90;;;;;;5056604;28;20486;-70
2021/09/25 07:10:40;;;;;;;16.70;10.23;;;16.40;99.90;;;;;;5056310;28;20036;-71
2021/09/25 07:13:06;;;;;;;14.45;9.13;;;16.50;99.90;;;;;;5074574;28;20032;-70
2021/09/25 07:15:32;;;;;;;22.15;9.43;;;16.60;99.90;;;;;;5074169;28;20049;-70
2021/09/25 07:17:58;;;;;;;16.67;8.80;;;16.80;99.90;;;;;;5074531;28;20107;-70
2021/09/25 07:20:25;;;;;;;14.85;8.82;;;16.90;99.90;;;;;;5056413;28;20397;-70
2021/09/25 07:22:51;;;;;;;16.75;9.20;;;17.00;99.90;;;;;;5074317;28;20115;-70
2021/09/25 07:25:19;;;;;;;15.85;8.38;;;17.10;99.90;;;;;;5056359;28;20040;-71
2021/09/25 07:27:45;;;;;;;17.50;7.93;;;17.30;99.90;;;;;;5074653;28;20028;-70
2021/09/25 07:30:11;;;;;;;17.13;8.27;;;17.50;99.90;;;;;;5056089;28;20025;-71
2021/09/25 07:32:37;;;;;;;12.90;7.53;;;17.60;99.90;;;;;;5056157;28;20418;-70
2021/09/25 07:35:03;;;;;;;11.80;8.00;;;17.80;99.90;;;;;;5074166;28;20110;-71
2021/09/25 07:37:29;;;;;;;11.13;6.75;;;17.90;99.90;;;;;;5055946;28;20028;-71
2021/09/25 07:39:54;;;;;;;8.88;6.22;;;18.10;99.90;;;;;;5073846;28;20094;-71
2021/09/25 07:42:20;;;;;;;11.13;6.95;;;18.20;99.90;;;;;;5055891;28;20082;-72
2021/09/25 07:44:49;;;;;;;15.32;7.05;;;18.30;99.90;;;;;;5073836;28;20028;-70
2021/09/25 07:47:16;;;;;;;11.10;7.38;;;18.40;99.90;;;;;;5055370;28;20021;-72
2021/09/25 07:49:42;;;;;;;12.30;6.38;;;18.50;99.90;;;;;;5073777;28;20047;-71
2021/09/25 07:52:08;;;;;;;11.93;6.22;;;18.60;98.70;;;;;;5073833;28;20485;-71
2021/09/25 07:54:34;;;;;;;12.27;7.07;;;18.70;98.70;;;;;;5073736;28;20029;-71
2021/09/25 07:57:00;;;;;;;8.52;6.50;;;18.80;97.90;;;;;;5055523;28;20031;-72
2021/09/25 07:59:25;;;;;;;19.13;7.15;;;18.90;98.00;;;;;;5055714;28;20040;-73
2021/09/25 08:01:51;;;;;;;10.25;5.53;;;19.00;97.60;;;;;;5055564;28;20032;-71
2021/09/25 08:04:17;;;;;;;11.52;6.00;;;19.20;97.50;;;;;;5054986;28;20024;-71
2021/09/25 08:06:43;;;;;;;8.32;5.80;;;19.30;97.10;;;;;;5072244;28;20480;-72
2021/09/25 08:09:09;;;;;;;11.82;6.03;;;19.50;96.10;;;;;;5073581;28;20034;-71
2021/09/25 08:11:35;;;;;;;8.10;5.80;;;19.60;96.20;;;;;;5073445;28;20039;-71
2021/09/25 08:14:01;;;;;;;9.00;5.40;;;19.80;95.30;;;;;;5055158;28;20083;-71
2021/09/25 08:16:27;;;;;;;11.05;5.22;;;20.00;94.90;;;;;;5055378;28;20162;-72
2021/09/25 08:18:54;;;;;;;10.23;5.35;;;20.20;94.80;;;;;;5073388;28;20033;-72
2021/09/25 08:21:20;;;;;;;6.93;5.03;;;20.30;93.90;;;;;;5073322;28;20029;-73
2021/09/25 08:23:46;;;;;;;6.28;4.80;;;20.50;92.70;;;;;;5072838;28;20362;-71
2021/09/25 08:26:12;;;;;;;8.93;5.78;;;20.70;92.50;;;;;;5054843;28;20111;-72
2021/09/25 08:28:38;;;;;;;8.65;5.28;;;20.90;92.20;;;;;;5055099;28;20035;-72
2021/09/25 08:31:04;;;;;;;7.15;4.78;;;21.10;92.40;;;;;;5073084;28;20029;-73
2021/09/25 08:33:30;;;;;;;12.45;5.03;;;21.20;90.10;;;;;;5055012;28;20400;-71
2021/09/25 08:35:56;;;;;;;7.53;4.68;;;21.40;91.30;;;;;;5073164;28;20028;-72
2021/09/25 08:38:22;;;;;;;6.57;4.68;;;21.50;89.50;;;;;;5055132;28;20379;-72
2021/09/25 08:40:47;;;;;;;8.15;4.75;;;21.70;89.30;;;;;;5072799;28;20024;-72
2021/09/25 08:43:13;;;;;;;9.60;4.97;;;21.90;88.80;;;;;;5073285;28;20028;-72
2021/09/25 08:45:40;;;;;;;6.35;3.70;;;22.00;88.30;;;;;;5073066;28;20059;-72
2021/09/25 08:48:06;;;;;;;7.85;3.90;;;22.10;84.20;;;;;;5072966;28;20565;-72
2021/09/25 08:50:32;;;;;;;7.03;4.07;;;22.30;85.50;;;;;;5054886;28;20119;-72
2021/09/25 08:52:58;;;;;;;8.57;3.60;;;22.50;85.30;;;;;;5054856;28;20024;-71
2021/09/25 08:55:24;;;;;;;4.85;3.40;;;22.60;81.90;;;;;;5072636;28;20380;-72
2021/09/25 08:57:50;;;;;;;5.65;3.85;;;22.70;81.90;;;;;;5072899;28;20108;-71
2021/09/25 09:00:39;;;;;;;6.45;4.20;;;22.90;81.20;;;;;;5056708;28;20056;-71
2021/09/25 09:03:37;;;;;;;7.15;4.22;;;23.00;82.00;;;;;;5077152;28;20078;-73
2021/09/25 09:06:13;;;;;;;5.78;3.60;;;23.20;81.00;;;;;;5076982;28;20029;-73
2021/09/25 09:08:40;;;;;;;10.85;3.75;;;23.30;78.20;;;;;;5076944;28;20032;-72
2021/09/25 09:11:07;;;;;;;6.82;3.38;;;23.40;80.70;;;;;;5076909;28;20109;-72
2021/09/25 09:13:35;;;;;;;5.65;3.00;;;23.60;78.90;;;;;;5076872;28;20425;-71
2021/09/25 09:16:04;;;;;;;5.88;3.90;;;23.70;78.90;;;;;;5076868;28;20044;-71
2021/09/25 09:18:33;;;;;;;8.23;3.65;;;24.10;74.90;;;;;;5058788;28;20094;-72
2021/09/25 09:21:22;;;;;;;8.52;3.13;;;24.10;75.40;;;;;;5076396;28;20028;-72
2021/09/25 09:23:51;;;;;;;9.27;4.53;;;24.30;74.20;;;;;;5058151;28;20020;-73
2021/09/25 09:26:19;;;;;;;3.42;3.08;;;24.40;75.20;;;;;;5076580;28;20039;-71
2021/09/25 09:28:48;;;;;;;8.52;3.70;;;24.60;74.60;;;;;;5076519;28;20024;-72
2021/09/25 09:31:14;;;;;;;6.45;3.53;;;24.80;73.90;;;;;;5076226;28;20489;-72
2021/09/25 09:33:45;;;;;;;11.75;4.30;;;;;;;;;;5076379;28;20024;-71
2021/09/25 09:36:37;;;;;;;4.30;2.90;;;25.10;69.90;;;;;;5076713;28;20024;-72
2021/09/25 09:39:17;;;;;;;6.28;3.70;;;25.20;69.60;;;;;;5077313;28;20028;-70
2021/09/25 09:41:44;;;;;;;9.88;3.55;;;25.30;70.30;;;;;;5076382;28;20052;-71
2021/09/25 09:44:21;;;;;;;4.75;2.95;;;25.40;70.30;;;;;;5076207;28;20025;-73
2021/09/25 09:47:02;;;;;;;7.00;3.35;;;25.50;70.10;;;;;;5058162;28;20066;-73
2021/09/25 09:49:32;;;;;;;7.90;3.43;;;25.40;68.30;;;;;;5075939;28;20448;-73
2021/09/25 09:52:07;;;;;;;6.95;3.60;;;25.50;69.10;;;;;;5076078;28;20032;-73
2021/09/25 09:54:41;;;;;;;6.25;3.50;;;25.50;67.90;;;;;;5075652;28;20461;-71
2021/09/25 09:57:09;;;;;;;6.88;3.20;;;25.70;68.60;;;;;;5076344;28;20036;-73
2021/09/25 09:59:36;;;;;;;10.18;3.65;;;25.80;67.40;;;;;;5058079;28;20067;-73
2021/09/25 10:02:03;;;;;;;6.63;3.30;;;25.90;67.00;;;;;;5057933;28;20135;-74
2021/09/25 10:04:29;;;;;;;9.57;3.38;;;26.20;67.60;;;;;;5075820;28;20154;-70
2021/09/25 10:06:56;;;;;;;8.35;3.17;;;;;;;;;;5076096;28;20786;-74
2021/09/25 10:09:27;;;;;;;5.80;3.45;;;26.30;67.30;;;;;;5075751;28;20028;-71
2021/09/25 10:11:59;;;;;;;6.72;3.40;;;27.10;65.90;;;;;;5057316;28;20028;-74
2021/09/25 10:14:27;;;;;;;6.35;3.55;;;27.40;63.80;;;;;;5057367;28;20048;-74
2021/09/25 10:16:54;;;;;;;5.15;3.55;;;28.00;62.60;;;;;;5075641;28;20107;-71
2021/09/25 10:19:26;;;;;;;6.82;3.58;;;28.30;61.90;;;;;;5075602;28;20032;-71
2021/09/25 10:21:54;;;;;;;6.50;3.28;;;;;;;;;;5057491;28;20031;-71
2021/09/25 10:24:24;;;;;;;3.15;2.95;;;29.70;59.10;;;;;;5075518;28;20100;-73
2021/09/25 10:26:51;;;;;;;6.03;3.63;;;29.70;59.60;;;;;;5057434;28;20032;-73
2021/09/25 10:29:20;;;;;;;4.32;3.17;;;30.50;59.00;;;;;;5075430;28;20043;-73
2021/09/25 10:31:46;;;;;;;5.57;3.30;;;30.80;57.50;;;;;;5057369;28;20115;-74
2021/09/25 10:34:19;;;;;;;5.82;2.90;;;;;;;;;;5057348;28;20063;-72
2021/09/25 10:36:55;;;;;;;4.35;2.95;;;30.60;56.50;;;;;;5075392;28;20095;-72
2021/09/25 10:39:39;;;;;;;4.65;2.58;;;32.20;56.30;;;;;;5075001;28;20041;-72
2021/09/25 10:42:11;;;;;;;5.45;3.08;;;32.90;53.40;;;;;;5075251;28;20070;-73
2021/09/25 10:44:55;;;;;;;4.22;2.45;;;;;;;;;;5075137;28;20020;-70
2021/09/25 10:47:25;;;;;;;7.97;3.30;;;;;;;;;;5057174;28;20028;-71
2021/09/25 10:49:58;;;;;;;6.18;3.00;;;33.60;53.60;;;;;;5075011;28;20115;-71
2021/09/25 10:52:52;;;;;;;3.53;3.22;;;34.70;51.70;;;;;;5056985;28;20029;-71
2021/09/25 10:55:26;;;;;;;3.88;2.92;;;35.00;50.40;;;;;;5062281;28;20492;-72
2021/09/25 10:58:11;;;;;;;5.00;2.60;;;34.20;49.30;;;;;;5074949;28;20032;-71
2021/09/25 11:00:51;;;;;;;5.97;2.78;;;;;;;;;;5074883;28;20033;-73
2021/09/25 11:06:10;;;;;;;5.13;3.05;;;36.60;47.80;;;;;;5074729;28;20116;-71
2021/09/25 11:08:37;;;;;;;4.45;2.70;;;36.80;46.80;;;;;;5056558;28;20064;-73
2021/09/25 11:11:11;;;;;;;8.07;3.05;;;37.20;46.50;;;;;;5074678;28;20024;-71
2021/09/25 11:14:02;;;;;;;6.47;3.28;;;37.50;45.40;;;;;;5074584;28;20024;-71
2021/09/25 11:16:50;;;;;;;5.32;2.83;;;37.80;45.10;;;;;;5074528;28;20032;-72
2021/09/25 11:19:22;;;;;;;7.50;3.13;;;37.90;45.50;;;;;;5074494;28;20373;-72
2021/09/25 11:22:00;;;;;;;3.88;3.10;;;38.00;44.30;;;;;;5073744;28;20380;-71
2021/09/25 11:24:29;;;;;;;4.07;2.55;;;38.50;44.50;;;;;;5074161;28;20040;-72
2021/09/25 11:26:55;;;;;;;4.65;2.70;;;38.80;44.00;;;;;;5074333;28;20055;-71
2021/09/25 11:29:20;;;;;;;7.10;2.63;;;39.30;43.50;;;;;;5056231;28;20040;-72
2021/09/25 11:31:48;;;;;;;3.10;2.58;;;37.80;42.90;;;;;;5074336;28;20248;-72
2021/09/25 11:34:26;;;;;;;2.97;2.70;;;38.90;42.80;;;;;;5056238;28;20028;-73
2021/09/25 11:36:54;;;;;;;3.80;2.30;;;40.00;42.30;;;;;;5074136;28;20029;-72
2021/09/25 11:39:44;;;;;;;5.38;2.63;;;40.20;42.00;;;;;;5074096;28;20036;-70
2021/09/25 11:42:14;;;;;;;6.18;2.70;;;40.40;41.80;;;;;;5061318;28;20550;-70
2021/09/25 11:44:50;;;;;;;2.92;2.65;;;40.50;41.70;;;;;;5056051;28;20381;-73
2021/09/25 11:47:41;;;;;;;4.88;2.83;;;40.70;41.40;;;;;;5073938;28;20032;-74
2021/09/25 11:50:16;;;;;;;5.80;2.70;;;40.40;53.70;;;;;;5061714;28;20132;-72
2021/09/25 11:52:45;;;;;;;5.57;2.63;;;40.00;41.00;;;;;;5073734;28;20028;-72
2021/09/25 11:55:11;;;;;;;3.00;2.58;;;40.50;41.30;;;;;;5055737;28;20025;-72
2021/09/25 11:57:38;;;;;;;6.47;2.72;;;39.90;44.00;;;;;;5073689;28;20032;-71
2021/09/25 12:00:27;;;;;;;2.30;2.00;;;39.40;41.30;;;;;;5055762;28;20047;-73
2021/09/25 12:02:55;;;;;;;3.88;2.60;;;40.50;44.30;;;;;;5055642;28;20457;-72
2021/09/25 12:05:28;;;;;;;5.60;2.42;;;40.90;39.90;;;;;;5055452;28;20111;-72
2021/09/25 12:07:56;;;;;;;3.47;2.35;;;41.40;39.70;;;;;;5073473;28;20032;-72
2021/09/25 12:10:24;;;;;;;3.35;2.35;;;41.70;39.90;;;;;;5073438;28;20032;-71
2021/09/25 12:12:57;;;;;;;5.78;2.30;;;41.90;38.70;;;;;;5073348;28;20032;-72
2021/09/25 12:15:25;;;;;;;4.63;3.03;;;;;;;;;;5088892;28;20494;-72
2021/09/25 12:18:16;;;;;;;5.72;2.65;;;42.30;38.90;;;;;;5075414;28;20473;-72
2021/09/25 12:20:43;;;;;;;3.25;2.47;;;;;;;;;;5093596;28;20039;-72
2021/09/25 12:23:12;;;;;;;5.50;2.75;;;42.00;38.80;;;;;;5093464;28;20052;-71
2021/09/25 12:25:40;;;;;;;4.93;3.25;;;43.00;37.90;;;;;;5093549;28;20479;-72
2021/09/25 12:28:29;;;;;;;3.47;2.67;;;43.00;38.00;;;;;;5093438;28;20066;-71
2021/09/25 12:30:57;;;;;;;2.67;2.40;;;42.80;37.90;;;;;;5093508;28;20535;-75
2021/09/25 12:33:23;;;;;;;2.92;2.65;;;43.20;37.60;;;;;;5093211;28;20077;-75
2021/09/25 12:36:19;;;;;;;5.65;2.67;;;43.60;37.10;;;;;;5075233;28;20031;-71
2021/09/25 12:38:46;;;;;;;4.68;2.20;;;43.60;37.40;;;;;;5075562;28;20483;-72
2021/09/25 12:41:21;;;;;;;2.58;2.17;;;43.80;37.30;;;;;;5075148;28;20028;-71
2021/09/25 12:44:00;;;;;;;5.80;2.70;;;44.20;37.10;;;;;;5093280;28;20028;-72
2021/09/25 12:46:34;;;;;;;2.97;2.30;;;44.70;36.80;;;;;;5093233;28;20030;-73